Time;durP1;ratioP1;P1;durP2;ratioP2;P2;SDS_P1;SDS_P2;PMS_P1;PMS_P2;Temp;Humidity;BMP_temperature;BMP_pressure;BME280_temperature;BME280_humidity;BME280_pressure;Samples;Min_cycle;Max_cycle;Signal;HPM_P1;HPM_P2
2023/03/23 00:02:05;;;;;;;2.20;1.63;;;12.90;99.90;;;-141.84;57.17;20098.38;5069551;28;20238;-73
2023/03/23 00:04:32;;;;;;;1.60;1.37;;;12.80;99.90;;;-141.84;56.61;20122.78;5069627;28;20264;-74
2023/03/23 00:07:01;;;;;;;4.40;1.50;;;12.80;99.90;;;-141.84;56.24;20090.25;5069537;28;20212;-73
2023/03/23 00:09:28;;;;;;;2.53;1.77;;;12.90;99.90;;;-141.84;56.62;20100.41;5069525;28;20362;-72
2023/03/23 00:12:04;;;;;;;3.38;1.95;;;12.80;99.90;;;-141.84;56.95;20065.84;5070064;28;20192;-72
2023/03/23 00:14:40;;;;;;;1.60;1.50;;;12.80;99.90;;;-141.84;57.10;20098.38;5069789;28;20220;-74
2023/03/23 00:17:10;;;;;;;2.23;1.70;;;12.70;99.90;;;-141.84;56.79;20082.13;5068282;28;20699;-73
2023/03/23 00:19:45;;;;;;;2.37;1.50;;;12.70;99.90;;;-141.84;57.20;20114.63;5069393;28;20220;-73
2023/03/23 00:22:14;;;;;;;2.23;1.60;;;12.70;99.90;;;-141.84;57.20;20059.75;5050148;28;20227;-72
2023/03/23 00:24:42;;;;;;;2.67;1.50;;;12.70;99.90;;;-141.84;57.38;20059.75;5068776;28;20679;-72
2023/03/23 00:27:14;;;;;;;1.70;1.47;;;12.60;99.90;;;-141.84;57.62;20082.13;5069163;28;20196;-72
2023/03/23 00:29:44;;;;;;;2.90;1.90;;;12.50;99.90;;;-141.84;57.50;20031.31;5068884;28;20200;-73
2023/03/23 00:32:14;;;;;;;2.60;1.60;;;12.50;99.90;;;-141.84;57.29;20069.94;5069486;28;20294;-74
2023/03/23 00:34:42;;;;;;;2.93;1.67;;;12.50;99.90;;;-141.84;58.00;20017.09;5033465;28;20750;-73
2023/03/23 00:37:11;;;;;;;4.30;1.70;;;12.40;99.90;;;-141.84;58.11;20045.53;5069528;28;20229;-72
2023/03/23 00:39:45;;;;;;;1.70;1.53;;;12.40;99.90;;;-141.84;58.30;20008.94;5072191;28;20260;-72
2023/03/23 00:42:16;;;;;;;2.63;1.57;;;12.30;99.90;;;-141.84;58.80;20019.13;5090046;28;20211;-72
2023/03/23 00:44:44;;;;;;;2.77;1.40;;;12.20;99.90;;;-141.84;58.59;20004.88;5072447;28;20228;-72
2023/03/23 00:47:12;;;;;;;2.47;1.70;;;12.20;99.90;;;-141.84;59.03;20037.41;5074338;28;20236;-73
2023/03/23 00:49:40;;;;;;;2.83;1.67;;;12.20;99.90;;;-141.84;59.52;19998.78;5069318;28;20725;-73
2023/03/23 00:52:08;;;;;;;3.77;1.63;;;12.10;99.90;;;-141.84;57.87;20061.78;5069257;28;20225;-74
2023/03/23 00:54:37;;;;;;;1.67;1.57;;;12.20;99.90;;;-141.84;56.80;20114.63;5069446;28;20224;-73
2023/03/23 00:57:06;;;;;;;3.10;1.50;;;12.40;99.90;;;-141.84;57.11;20053.66;5069544;28;20516;-72
2023/03/23 00:59:34;;;;;;;1.90;1.47;;;12.40;99.90;;;-141.84;56.82;20098.38;5072328;28;20200;-73
2023/03/23 01:02:01;;;;;;;3.80;1.77;;;12.40;99.90;;;-141.84;56.83;20065.84;5072620;28;20286;-73
2023/03/23 01:04:31;;;;;;;1.83;1.70;;;12.50;99.90;;;-141.84;57.58;20031.31;5071304;28;20224;-72
2023/03/23 01:07:00;;;;;;;1.90;1.70;;;12.40;99.90;;;-141.84;57.42;20061.78;5072606;28;20228;-74
2023/03/23 01:09:28;;;;;;;2.83;1.50;;;12.40;99.90;;;-141.84;57.45;20041.47;5071338;28;20227;-73
2023/03/23 01:11:56;;;;;;;1.80;1.70;;;12.40;99.90;;;-141.84;57.56;20033.34;5073070;28;20189;-72
2023/03/23 01:14:23;;;;;;;2.10;1.87;;;12.40;99.90;;;-141.84;57.59;20049.59;5071233;28;20254;-71
2023/03/23 01:16:52;;;;;;;1.48;1.38;;;12.40;99.90;;;-141.84;57.22;20045.53;5072483;28;20228;-72
2023/03/23 01:19:19;;;;;;;1.97;1.53;;;12.40;99.90;;;-141.84;57.23;20045.53;5082639;28;20245;-73
2023/03/23 01:21:47;;;;;;;1.60;1.50;;;12.40;99.90;;;-141.84;56.34;20049.59;5070935;28;20220;-73
2023/03/23 01:24:14;;;;;;;3.50;1.40;;;12.50;99.90;;;-141.84;55.89;20088.22;5072180;28;20311;-72
2023/03/23 01:26:41;;;;;;;2.07;1.70;;;12.60;99.90;;;-141.84;56.17;20061.78;5072470;28;20204;-73
2023/03/23 01:29:08;;;;;;;1.37;1.27;;;12.50;99.90;;;-141.84;56.56;20047.56;5072362;28;20604;-72
2023/03/23 01:31:36;;;;;;;2.00;1.40;;;12.40;99.90;;;-141.84;56.27;20029.28;5071032;28;20290;-71
2023/03/23 01:34:05;;;;;;;2.17;1.63;;;12.40;99.90;;;-141.84;57.64;20008.94;5072398;28;20228;-72
2023/03/23 01:36:33;;;;;;;3.08;1.48;;;12.30;99.90;;;-141.84;56.86;20031.31;5072240;28;20227;-73
2023/03/23 01:39:03;;;;;;;3.07;1.73;;;12.20;99.90;;;-141.84;56.92;20039.44;5081680;28;20703;-70
2023/03/23 01:41:31;;;;;;;1.70;1.30;;;12.20;99.90;;;-141.84;56.91;20010.97;5092494;28;20295;-72
2023/03/23 01:44:03;;;;;;;1.87;1.50;;;12.10;99.90;;;-141.84;57.79;20004.88;5092180;28;20228;-73
2023/03/23 01:46:32;;;;;;;1.40;1.30;;;12.10;99.90;;;-141.84;58.33;19972.38;5070865;28;20224;-72
2023/03/23 01:49:08;;;;;;;1.50;1.30;;;12.00;99.90;;;-141.84;57.87;19972.38;5072059;28;20217;-73
2023/03/23 01:51:41;;;;;;;1.40;1.30;;;11.90;99.90;;;-141.84;58.17;19972.38;5071777;28;20215;-73
2023/03/23 01:54:18;;;;;;;1.53;1.27;;;11.80;99.90;;;-141.84;57.30;20006.91;5071985;28;20234;-73
2023/03/23 01:56:53;;;;;;;2.80;1.80;;;11.90;99.90;;;-141.84;56.03;20031.31;5071952;28;20189;-71
2023/03/23 01:59:23;;;;;;;1.40;1.30;;;12.00;99.90;;;-141.84;56.51;20006.91;5071914;28;20781;-72
2023/03/23 02:01:52;;;;;;;2.60;1.37;;;12.10;99.90;;;-141.84;56.89;19986.59;5071800;28;20578;-73
2023/03/23 02:04:23;;;;;;;2.03;1.33;;;12.00;99.90;;;-141.84;56.90;20010.97;5071840;28;20225;-72
2023/03/23 02:06:52;;;;;;;2.10;1.33;;;12.10;99.90;;;-141.84;55.80;20074.00;5071476;28;20716;-72
2023/03/23 02:09:21;;;;;;;2.13;1.40;;;12.20;99.90;;;-141.84;56.89;20029.28;5072631;28;20204;-71
2023/03/23 02:11:50;;;;;;;1.70;1.30;;;12.20;99.90;;;-141.84;56.23;20045.53;5071628;28;20207;-71
2023/03/23 02:14:19;;;;;;;2.90;1.27;;;12.30;99.90;;;-141.84;55.63;20112.59;5071446;28;20232;-72
2023/03/23 02:16:55;;;;;;;1.60;1.20;;;12.30;99.90;;;-141.84;55.38;20074.00;5071425;28;20270;-72
2023/03/23 02:20:07;;;;;;;4.87;1.40;;;12.40;99.90;;;-141.84;54.95;20086.19;5071453;28;20227;-71
2023/03/23 02:23:24;;;;;;;1.50;1.40;;;12.50;99.90;;;-141.84;55.64;20047.56;5045841;28;20251;-72
2023/03/23 02:26:12;;;;;;;1.87;1.30;;;12.50;99.90;;;-141.84;55.81;20043.50;5071338;28;20228;-72
2023/03/23 02:29:13;;;;;;;1.80;1.20;;;12.40;99.90;;;-141.84;56.42;20043.50;5051124;28;20225;-71
2023/03/23 02:32:13;;;;;;;1.80;1.20;;;12.40;99.90;;;-141.84;56.44;20027.25;5051450;28;20352;-72
2023/03/23 02:34:49;;;;;;;1.43;1.33;;;12.30;99.90;;;-141.84;56.46;20051.63;5066680;28;20587;-71
2023/03/23 02:37:28;;;;;;;1.73;1.40;;;12.20;99.90;;;-141.84;55.36;20076.03;5051386;28;20221;-72
2023/03/23 02:40:06;;;;;;;1.27;1.17;;;12.30;99.90;;;-141.84;55.16;20102.44;5085018;28;20242;-73
2023/03/23 02:42:37;;;;;;;2.43;1.40;;;12.40;99.90;;;-141.84;55.32;20076.03;5042807;28;20227;-72
2023/03/23 02:45:10;;;;;;;2.33;1.50;;;12.40;99.90;;;-141.84;55.01;20049.59;5075246;28;20185;-73
2023/03/23 02:47:40;;;;;;;3.30;1.43;;;12.40;99.90;;;-141.84;54.95;20069.94;5071490;28;20248;-71
2023/03/23 02:50:15;;;;;;;2.57;1.30;;;12.50;99.90;;;-141.84;54.86;20128.88;5036081;28;20221;-72
2023/03/23 02:52:45;;;;;;;2.55;1.30;;;12.50;99.90;;;-141.84;55.30;20049.59;5070845;28;20307;-73
2023/03/23 02:55:15;;;;;;;4.10;1.40;;;12.40;99.90;;;-141.84;55.88;20043.50;5071124;28;20599;-70
2023/03/23 02:57:44;;;;;;;3.20;1.50;;;12.40;99.90;;;-141.84;55.54;20037.41;5070201;28;20217;-72
2023/03/23 03:00:18;;;;;;;6.40;1.40;;;12.40;99.90;;;-141.84;54.69;20094.31;5070784;28;20562;-73
2023/03/23 03:02:52;;;;;;;2.07;1.53;;;12.50;99.90;;;-141.84;54.78;20051.63;5070735;28;20212;-72
2023/03/23 03:05:37;;;;;;;4.70;1.60;;;12.40;99.90;;;-141.84;54.91;20067.88;5069119;28;20231;-71
2023/03/23 03:08:19;;;;;;;1.57;1.27;;;12.50;99.90;;;-141.84;55.09;20090.25;5070467;28;20231;-71
2023/03/23 03:10:56;;;;;;;2.00;1.50;;;12.60;99.90;;;-141.84;54.71;20086.19;5070433;28;20220;-72
2023/03/23 03:13:44;;;;;;;1.83;1.30;;;12.60;99.90;;;-141.84;54.91;20090.25;5070010;28;20255;-71
2023/03/23 03:16:25;;;;;;;3.50;1.15;;;12.70;99.90;;;-141.84;54.72;20132.94;5070269;28;20770;-72
2023/03/23 03:19:01;;;;;;;2.93;1.50;;;12.60;99.90;;;-141.84;55.23;20082.13;5069959;28;20256;-72
2023/03/23 03:21:37;;;;;;;2.93;1.50;;;12.60;99.90;;;-141.84;54.80;20110.56;5069760;28;20332;-71
2023/03/23 03:24:10;;;;;;;2.57;1.30;;;12.60;99.90;;;-141.84;55.20;20069.94;5068507;28;20199;-73
2023/03/23 03:26:47;;;;;;;1.50;1.40;;;12.60;99.90;;;-141.84;54.94;20132.94;5070293;28;20204;-72
2023/03/23 03:29:18;;;;;;;6.77;1.53;;;12.70;99.90;;;-141.84;54.36;20110.56;5069850;28;20755;-72
2023/03/23 03:31:48;;;;;;;2.90;1.67;;;12.70;99.90;;;-141.84;54.27;20130.91;5070121;28;20228;-72
2023/03/23 03:34:18;;;;;;;4.60;1.40;;;12.80;99.90;;;-141.84;53.92;20143.09;5070081;28;20344;-72
2023/03/23 03:36:50;;;;;;;2.72;1.20;;;12.80;99.90;;;-141.84;53.89;20169.53;5069841;28;20656;-72
2023/03/23 03:39:19;;;;;;;3.00;1.33;;;12.80;99.90;;;-141.84;54.42;20098.38;5069999;28;20280;-72
2023/03/23 03:41:47;;;;;;;2.45;1.38;;;12.80;99.90;;;-141.84;54.34;20143.09;5051006;28;20407;-72
2023/03/23 03:44:16;;;;;;;3.10;1.70;;;12.80;99.90;;;-141.84;54.40;20114.63;5070070;28;20616;-72
2023/03/23 03:46:43;;;;;;;2.70;1.52;;;12.80;99.90;;;-141.84;54.41;20139.03;5070141;28;20236;-71
2023/03/23 03:49:12;;;;;;;2.43;1.50;;;12.80;99.90;;;-141.84;53.87;20159.34;5070055;28;20355;-71
2023/03/23 03:51:40;;;;;;;2.77;1.27;;;12.90;99.90;;;-141.84;54.27;20147.16;5070058;28;20712;-73
2023/03/23 03:54:10;;;;;;;2.85;1.45;;;12.90;99.90;;;-141.84;54.68;20130.91;5069890;28;20197;-73
2023/03/23 03:56:40;;;;;;;2.03;1.20;;;12.90;99.90;;;-141.84;54.18;20183.75;5068891;28;20270;-73
2023/03/23 03:59:07;;;;;;;2.80;1.40;;;12.90;99.90;;;-141.84;53.94;20171.56;5069419;28;20300;-72
2023/03/23 04:01:36;;;;;;;2.93;1.30;;;12.90;99.90;;;-141.84;54.58;20108.53;5069873;28;20227;-71
2023/03/23 04:04:04;;;;;;;1.40;1.30;;;12.90;99.90;;;-141.84;54.00;20208.13;5068218;28;20228;-70
2023/03/23 04:06:32;;;;;;;1.80;1.40;;;13.00;99.90;;;-141.84;54.60;20149.19;5067678;28;20225;-72
2023/03/23 04:09:01;;;;;;;3.08;1.40;;;12.90;99.90;;;-141.84;54.93;20167.47;5069988;28;20208;-71
2023/03/23 04:11:29;;;;;;;2.50;1.30;;;12.90;99.90;;;-141.84;55.12;20130.91;5069772;28;20220;-71
2023/03/23 04:13:56;;;;;;;2.07;1.40;;;12.80;99.90;;;-141.84;54.99;20139.03;5069231;28;20228;-72
2023/03/23 04:16:24;;;;;;;2.63;1.20;;;12.80;99.90;;;-141.84;55.34;20108.53;5068201;28;20235;-72
2023/03/23 04:18:51;;;;;;;1.70;1.60;;;12.80;99.90;;;-141.84;54.64;20147.16;5069552;28;20225;-71
2023/03/23 04:21:18;;;;;;;2.03;1.33;;;12.70;99.90;;;-141.84;54.48;20141.06;5069482;28;20650;-72
2023/03/23 04:23:45;;;;;;;2.30;1.50;;;12.90;99.90;;;-141.84;54.86;20167.47;5069581;28;20219;-73
2023/03/23 04:26:13;;;;;;;2.77;1.40;;;12.90;99.90;;;-141.84;55.41;20096.34;5069556;28;20241;-72
2023/03/23 04:28:41;;;;;;;1.92;1.50;;;12.80;99.90;;;-141.84;54.69;20163.41;5069528;28;20228;-71
2023/03/23 04:31:12;;;;;;;1.87;1.37;;;12.80;99.90;;;-141.84;54.50;20185.78;5069810;28;20673;-72
2023/03/23 04:33:41;;;;;;;1.70;1.60;;;12.90;99.90;;;-141.84;54.84;20155.28;5070775;28;20746;-73
2023/03/23 04:36:08;;;;;;;1.50;1.23;;;12.90;99.90;;;-141.84;54.99;20149.19;5073222;28;20200;-72
2023/03/23 04:38:35;;;;;;;1.50;1.40;;;12.90;99.90;;;-141.84;54.74;20147.16;5073695;28;20560;-73
2023/03/23 04:41:03;;;;;;;2.93;1.30;;;12.90;99.90;;;-141.84;55.43;20112.59;5073141;28;20224;-72
2023/03/23 04:43:32;;;;;;;1.80;1.50;;;12.90;99.90;;;-141.84;55.42;20092.28;5072847;28;20224;-73
2023/03/23 04:46:02;;;;;;;2.10;1.67;;;12.80;99.90;;;-141.84;55.71;20126.84;5073203;28;20223;-73
2023/03/23 04:48:32;;;;;;;2.13;1.67;;;12.70;99.90;;;-141.84;55.85;20124.81;5073098;28;20224;-72
2023/03/23 04:51:02;;;;;;;1.50;1.40;;;12.70;99.90;;;-141.84;55.57;20134.97;5073431;28;20591;-73
2023/03/23 04:53:30;;;;;;;2.15;1.80;;;12.70;99.90;;;-141.84;54.71;20147.16;5037704;28;20599;-73
2023/03/23 04:55:57;;;;;;;3.50;1.50;;;12.80;99.90;;;-141.84;55.08;20159.34;5072588;28;20235;-71
2023/03/23 04:58:24;;;;;;;1.93;1.50;;;12.80;99.90;;;-141.84;55.90;20114.63;5072709;28;20232;-72
2023/03/23 05:00:51;;;;;;;3.03;1.60;;;12.70;99.90;;;-141.84;56.31;20106.50;5072871;28;20638;-73
2023/03/23 05:03:21;;;;;;;2.00;1.73;;;12.70;99.90;;;-141.84;56.01;20124.81;5072971;28;20224;-73
2023/03/23 05:05:52;;;;;;;2.17;1.73;;;12.70;99.90;;;-141.84;56.67;20057.72;5072914;28;20208;-73
2023/03/23 05:08:20;;;;;;;2.13;1.43;;;12.60;99.90;;;-141.84;57.55;20067.88;5072612;28;20278;-73
2023/03/23 05:10:56;;;;;;;2.20;1.70;;;12.60;99.90;;;-141.84;57.92;20102.44;5072444;28;20735;-73
2023/03/23 05:13:24;;;;;;;1.70;1.60;;;12.50;99.90;;;-141.84;58.33;20071.97;5087986;28;20707;-73
2023/03/23 05:15:51;;;;;;;1.70;1.45;;;12.50;99.90;;;-141.84;57.76;20094.31;5072383;28;20224;-73
2023/03/23 05:18:21;;;;;;;2.65;1.60;;;12.50;99.90;;;-141.84;58.02;20080.09;5072595;28;20248;-73
2023/03/23 05:20:52;;;;;;;3.20;1.77;;;12.50;99.90;;;-141.84;58.37;20076.03;5072939;28;20238;-73
2023/03/23 05:23:24;;;;;;;2.63;1.87;;;12.50;99.90;;;-141.84;58.34;20051.63;5053098;28;20229;-75
2023/03/23 05:25:55;;;;;;;2.53;1.80;;;12.50;99.90;;;-141.84;58.07;20051.63;5072192;28;20293;-72
2023/03/23 05:28:22;;;;;;;2.13;1.50;;;12.40;99.90;;;-141.84;58.54;20067.88;5072333;28;20286;-73
2023/03/23 05:30:50;;;;;;;2.33;1.70;;;12.40;99.90;;;-141.84;59.20;20031.31;5036469;28;20232;-73
2023/03/23 05:33:17;;;;;;;3.10;1.80;;;12.40;99.90;;;-141.84;59.57;20069.94;5072628;28;20204;-72
2023/03/23 05:35:48;;;;;;;1.90;1.70;;;12.40;99.90;;;-141.84;59.50;20047.56;5073053;28;20208;-73
2023/03/23 05:38:15;;;;;;;2.73;2.10;;;12.40;99.90;;;-141.84;60.27;20047.56;5072507;28;20224;-72
2023/03/23 05:40:43;;;;;;;1.92;1.83;;;12.40;99.90;;;-141.84;60.94;20023.19;5072247;28;20642;-72
2023/03/23 05:43:11;;;;;;;3.50;2.00;;;12.40;99.90;;;-141.84;61.29;20043.50;5072136;28;20220;-72
2023/03/23 05:45:38;;;;;;;2.17;1.80;;;12.40;99.90;;;-141.84;61.24;20015.03;5070924;28;20310;-74
2023/03/23 05:48:06;;;;;;;4.22;1.75;;;12.40;99.90;;;-141.84;60.51;20061.78;5072566;28;20193;-71
2023/03/23 05:50:34;;;;;;;2.03;1.87;;;12.40;99.90;;;-141.84;60.11;20045.53;5072513;28;20204;-72
2023/03/23 05:53:04;;;;;;;2.40;1.80;;;12.40;99.90;;;-141.84;60.35;20061.78;5052917;28;20645;-72
2023/03/23 05:55:31;;;;;;;4.47;1.90;;;12.40;99.90;;;-141.84;60.07;20057.72;5072047;28;20220;-72
2023/03/23 05:57:59;;;;;;;2.53;1.60;;;12.40;99.90;;;-141.84;59.99;20084.16;5071472;28;20727;-72
2023/03/23 06:00:29;;;;;;;2.83;1.80;;;12.40;99.90;;;-141.84;59.67;20094.31;5071893;28;20636;-73
2023/03/23 06:02:58;;;;;;;1.90;1.70;;;12.50;99.90;;;-141.84;60.05;20069.94;5072645;28;20208;-73
2023/03/23 06:05:25;;;;;;;4.27;2.10;;;12.50;99.90;;;-141.84;60.00;20088.22;5071927;28;20223;-74
2023/03/23 06:07:53;;;;;;;2.80;1.88;;;12.50;99.90;;;-141.84;60.51;20065.84;5070477;28;20226;-71
2023/03/23 06:10:23;;;;;;;2.97;1.90;;;12.50;99.90;;;-141.84;60.63;20013.00;5071605;28;20224;-72
2023/03/23 06:12:51;;;;;;;1.98;1.77;;;12.40;99.90;;;-141.84;61.82;20061.78;5071931;28;20235;-71
2023/03/23 06:15:19;;;;;;;2.42;1.80;;;12.50;99.90;;;-141.84;62.12;20031.31;5071872;28;20203;-74
2023/03/23 06:17:46;;;;;;;4.22;1.80;;;12.50;99.90;;;-141.84;63.20;20006.91;5072196;28;20782;-72
2023/03/23 06:20:14;;;;;;;2.42;1.67;;;12.50;99.90;;;-141.84;63.59;20029.28;5071550;28;20233;-73
2023/03/23 06:22:41;;;;;;;2.13;1.92;;;12.40;99.90;;;-141.84;64.37;19984.56;5070970;28;20282;-72
2023/03/23 06:25:12;;;;;;;3.72;1.88;;;12.40;99.90;;;-141.84;64.97;19988.63;5069972;28;20223;-72
2023/03/23 06:27:41;;;;;;;3.13;1.92;;;12.40;99.90;;;-141.84;65.80;19996.75;5071218;28;20216;-72
2023/03/23 06:30:10;;;;;;;3.17;1.77;;;12.40;99.90;;;-141.84;67.35;19990.66;5071414;28;20204;-73
2023/03/23 06:32:39;;;;;;;3.58;2.17;;;12.30;99.90;;;-141.84;68.57;19947.97;5071811;28;20281;-71
2023/03/23 06:35:09;;;;;;;2.40;2.05;;;12.30;99.90;;;-141.84;69.12;19960.16;5071401;28;20225;-73
2023/03/23 06:37:36;;;;;;;2.70;2.30;;;12.20;99.90;;;-141.84;69.34;19943.91;5071186;28;20256;-73
2023/03/23 06:40:05;;;;;;;4.13;2.10;;;12.20;99.90;;;-141.84;70.06;19931.72;5070015;28;20621;-72
2023/03/23 06:42:33;;;;;;;2.47;2.03;;;12.10;99.90;;;-141.84;70.51;19933.75;5071068;28;20220;-73
2023/03/23 06:45:03;;;;;;;5.40;2.30;;;12.20;99.90;;;-141.84;70.85;19960.16;5072644;28;20204;-73
2023/03/23 06:47:30;;;;;;;2.30;2.10;;;12.10;99.90;;;-141.84;71.76;19954.06;5071837;28;20221;-72
2023/03/23 06:49:57;;;;;;;2.70;2.20;;;12.10;99.90;;;-141.84;71.91;19927.66;5071908;28;20240;-75
2023/03/23 06:52:25;;;;;;;2.22;2.03;;;12.10;99.90;;;-141.84;71.85;19937.81;5052656;28;20724;-74
2023/03/23 06:54:53;;;;;;;3.38;2.40;;;12.10;99.90;;;-141.84;71.71;19923.59;5070678;28;20289;-74
2023/03/23 06:57:20;;;;;;;4.15;2.47;;;12.10;99.90;;;-141.84;71.38;19939.84;5071270;28;20197;-73
2023/03/23 06:59:48;;;;;;;2.73;2.40;;;12.10;99.90;;;-141.84;71.38;19943.91;5073320;28;20189;-72
2023/03/23 07:02:17;;;;;;;2.10;1.90;;;12.20;99.90;;;-141.84;67.16;20025.22;5059092;28;20232;-75
2023/03/23 07:04:45;;;;;;;4.03;2.53;;;12.30;99.90;;;-141.84;68.13;19992.69;5053563;28;20233;-73
2023/03/23 07:07:18;;;;;;;3.10;2.70;;;12.40;99.90;;;-141.84;68.96;19994.72;5052350;28;20225;-73
2023/03/23 07:09:45;;;;;;;3.33;3.00;;;12.40;99.90;;;-141.84;69.69;19974.41;5052710;28;20252;-74
2023/03/23 07:12:14;;;;;;;4.13;2.20;;;12.40;99.90;;;-141.84;67.10;19964.25;5052848;28;20198;-71
2023/03/23 07:14:41;;;;;;;2.58;1.98;;;12.50;99.90;;;-141.84;66.92;20008.94;5053072;28;20221;-73
2023/03/23 07:17:09;;;;;;;2.40;1.70;;;12.50;99.90;;;-141.84;66.19;20006.91;5052105;28;20221;-74
2023/03/23 07:19:37;;;;;;;2.53;1.75;;;12.60;99.90;;;-141.84;66.38;20000.81;5052521;28;20225;-74
2023/03/23 07:22:07;;;;;;;1.98;1.60;;;12.70;99.90;;;-141.84;64.79;20061.78;5053011;28;20233;-72
2023/03/23 07:24:34;;;;;;;1.70;1.60;;;12.80;99.90;;;-141.84;64.77;20029.28;5070510;28;20600;-71
2023/03/23 07:27:02;;;;;;;1.65;1.50;;;12.80;99.90;;;-141.84;65.16;20057.72;5066201;28;20235;-73
2023/03/23 07:29:29;;;;;;;2.40;1.65;;;12.80;99.90;;;-141.84;65.72;20057.72;5071846;28;20213;-72
2023/03/23 07:31:57;;;;;;;2.25;1.30;;;12.90;99.90;;;-141.84;65.42;20078.06;5071817;28;20600;-72
2023/03/23 07:34:24;;;;;;;1.83;1.50;;;12.90;99.90;;;-141.84;65.44;20065.84;5072092;28;20226;-72
2023/03/23 07:36:52;;;;;;;2.53;1.35;;;12.90;99.90;;;-141.84;64.81;20067.88;5072729;28;20228;-71
2023/03/23 07:39:19;;;;;;;2.00;1.60;;;13.00;99.90;;;-141.84;66.01;20027.25;5073309;28;20504;-72
2023/03/23 07:41:47;;;;;;;1.90;1.50;;;13.00;99.90;;;-141.84;65.88;20053.66;5073648;28;20193;-72
2023/03/23 07:44:14;;;;;;;1.58;1.48;;;13.00;99.90;;;-141.84;66.17;20076.03;5071024;28;20235;-72
2023/03/23 07:46:41;;;;;;;2.03;1.40;;;13.00;99.90;;;-141.84;65.89;20069.94;5071789;28;20279;-72
2023/03/23 07:49:10;;;;;;;2.00;1.50;;;13.00;99.90;;;-141.84;65.53;20061.78;5072610;28;20316;-71
2023/03/23 07:51:39;;;;;;;1.27;1.17;;;13.00;99.90;;;-141.84;65.76;20063.81;5073389;28;20282;-73
2023/03/23 07:54:08;;;;;;;1.42;1.33;;;13.00;99.90;;;-141.84;64.98;20078.06;5072737;28;20656;-72
2023/03/23 07:56:36;;;;;;;1.47;1.37;;;13.00;99.90;;;-141.84;64.55;20063.81;5072684;28;20195;-71
2023/03/23 07:59:04;;;;;;;1.60;1.20;;;13.00;99.90;;;-141.84;65.25;20100.41;5073548;28;20235;-74
2023/03/23 08:01:32;;;;;;;3.60;1.50;;;13.00;99.90;;;-141.84;64.79;20059.75;5071274;28;20228;-71
2023/03/23 08:03:59;;;;;;;1.50;1.40;;;13.10;99.90;;;-141.84;65.04;20100.41;5071767;28;20228;-71
2023/03/23 08:06:27;;;;;;;1.67;1.52;;;13.10;99.90;;;-141.84;64.38;20108.53;5070663;28;20231;-73
2023/03/23 08:08:55;;;;;;;2.83;1.50;;;13.20;99.90;;;-141.84;64.71;20096.34;5072355;28;20736;-73
2023/03/23 08:11:24;;;;;;;1.80;1.60;;;13.30;99.90;;;-141.84;65.75;20074.00;5073820;28;20220;-72
2023/03/23 08:13:51;;;;;;;3.67;1.30;;;13.30;99.90;;;-141.84;65.57;20145.13;5071286;28;20228;-74
2023/03/23 08:16:18;;;;;;;5.15;2.05;;;13.30;99.90;;;-141.84;65.78;20084.16;5073679;28;20232;-75
2023/03/23 08:18:45;;;;;;;4.28;2.08;;;13.30;99.90;;;-141.84;65.33;20141.06;5073560;28;20227;-73
2023/03/23 08:21:13;;;;;;;2.30;1.70;;;13.30;99.90;;;-141.84;64.53;20134.97;5072159;28;20672;-74
2023/03/23 08:23:40;;;;;;;2.15;1.90;;;13.40;99.90;;;-141.84;66.06;20134.97;5073616;28;20604;-72
2023/03/23 08:26:09;;;;;;;4.32;1.80;;;13.40;99.90;;;-141.84;66.82;20143.09;5087484;28;20239;-72
2023/03/23 08:28:39;;;;;;;3.70;1.70;;;13.40;99.90;;;-141.84;66.69;20092.28;5053383;28;20233;-73
2023/03/23 08:31:08;;;;;;;3.35;2.10;;;13.40;99.90;;;-141.84;66.55;20100.41;5034697;28;20648;-73
2023/03/23 08:33:36;;;;;;;3.72;1.90;;;13.30;99.90;;;-141.84;65.86;20108.53;5053183;28;20626;-72
2023/03/23 08:36:04;;;;;;;2.53;1.73;;;13.40;99.90;;;-141.84;65.79;20149.19;5053491;28;20275;-71
2023/03/23 08:38:32;;;;;;;2.42;2.10;;;13.50;99.90;;;-141.84;64.88;20130.91;5053766;28;20194;-73
2023/03/23 08:41:00;;;;;;;3.22;1.80;;;13.60;99.90;;;-141.84;64.41;20195.94;5053137;28;20229;-73
2023/03/23 08:43:28;;;;;;;3.13;1.90;;;13.80;99.90;;;-141.84;63.81;20244.72;5052735;28;20279;-73
2023/03/23 08:45:56;;;;;;;2.00;1.80;;;13.90;99.90;;;-141.84;62.92;20269.13;5055079;28;20213;-74
2023/03/23 08:48:24;;;;;;;1.90;1.70;;;14.10;99.90;;;-141.84;62.28;20289.44;5073018;28;20216;-73
2023/03/23 08:50:52;;;;;;;2.10;1.90;;;14.40;99.90;;;-141.84;60.75;20389.03;5072423;28;20582;-74
2023/03/23 08:53:21;;;;;;;3.15;2.00;;;14.50;99.90;;;-141.84;60.35;20415.47;5072506;28;20271;-73
2023/03/23 08:55:49;;;;;;;2.97;2.13;;;14.80;99.90;;;-141.84;59.08;20423.59;5072751;28;20244;-71
2023/03/23 08:58:17;;;;;;;2.40;2.03;;;15.00;99.90;;;-141.84;58.77;20494.75;5072519;28;20232;-72
2023/03/23 09:00:45;;;;;;;3.60;2.30;;;15.20;99.90;;;-141.84;58.23;20445.94;5073098;28;20220;-71
2023/03/23 09:03:15;;;;;;;3.72;1.90;;;15.30;99.90;;;-141.84;58.39;20488.63;5072712;28;20288;-73
2023/03/23 09:05:45;;;;;;;3.55;2.20;;;15.40;99.90;;;-141.84;57.79;20523.19;5073412;28;20242;-72
2023/03/23 09:08:13;;;;;;;5.22;2.10;;;15.50;99.90;;;-141.84;58.39;20508.97;5073203;28;20216;-73
2023/03/23 09:10:41;;;;;;;1.90;1.70;;;15.50;99.90;;;-141.84;58.18;20500.84;5054426;28;20225;-72
2023/03/23 09:13:08;;;;;;;2.50;1.80;;;15.60;99.90;;;-141.84;57.57;20415.47;5072814;28;20722;-72
2023/03/23 09:15:35;;;;;;;2.83;2.20;;;15.40;99.90;;;-141.84;57.59;20447.97;5073184;28;20220;-72
2023/03/23 09:18:03;;;;;;;2.38;1.80;;;15.50;99.90;;;-141.84;56.39;20523.19;5073468;28;20197;-65
2023/03/23 09:20:32;;;;;;;3.85;1.88;;;15.60;99.90;;;-141.84;55.50;20557.75;5073063;28;20300;-73
2023/03/23 09:22:59;;;;;;;3.05;1.77;;;15.70;99.90;;;-141.84;55.21;20574.00;5072502;28;20307;-72
2023/03/23 09:25:29;;;;;;;3.15;1.70;;;15.80;99.90;;;-141.84;55.07;20578.09;5072663;28;20234;-73
2023/03/23 09:27:58;;;;;;;2.17;1.80;;;15.90;99.90;;;-141.84;54.22;20584.19;5072402;28;20764;-73
2023/03/23 09:30:30;;;;;;;2.33;2.00;;;16.00;99.90;;;-141.84;54.90;20561.81;5072688;28;20224;-73
2023/03/23 09:33:00;;;;;;;3.95;2.17;;;16.00;99.90;;;-141.84;54.30;20598.41;5071629;28;20184;-73
2023/03/23 09:35:28;;;;;;;2.67;1.67;;;16.00;99.90;;;-141.84;54.41;20513.03;5072949;28;20217;-73
2023/03/23 09:38:00;;;;;;;4.72;2.10;;;15.90;99.90;;;-141.84;55.51;20557.75;5072474;28;20223;-72
2023/03/23 09:40:36;;;;;;;2.97;1.98;;;15.90;99.90;;;-141.84;55.28;20555.72;5072625;28;20596;-72
2023/03/23 09:43:47;;;;;;;2.10;1.90;;;15.90;99.90;;;-141.84;55.19;20569.94;5072669;28;20230;-74
2023/03/23 09:46:38;;;;;;;1.92;1.70;;;16.00;99.90;;;-141.84;54.20;20569.94;5065548;28;20278;-73
2023/03/23 09:49:13;;;;;;;3.72;2.05;;;16.00;99.90;;;-141.84;54.61;20608.56;5072453;28;20216;-72
2023/03/23 09:51:47;;;;;;;2.65;1.73;;;16.10;99.90;;;-141.84;54.23;20632.97;5069713;28;20220;-71
2023/03/23 09:54:22;;;;;;;2.50;2.20;;;16.10;99.90;;;-141.84;53.65;20630.94;5053887;28;20288;-74
2023/03/23 09:56:52;;;;;;;2.22;1.80;;;16.30;99.90;;;-141.84;53.02;20657.34;5072494;28;20199;-73
2023/03/23 09:59:28;;;;;;;2.13;1.75;;;16.40;99.90;;;-141.84;52.48;20710.22;5072137;28;20674;-72
2023/03/23 10:02:04;;;;;;;1.75;1.65;;;16.50;99.90;;;-141.84;52.61;20679.72;5072672;28;20730;-74
2023/03/23 10:04:42;;;;;;;4.28;1.90;;;16.60;99.90;;;-141.84;52.65;20618.72;5072082;28;20256;-72
2023/03/23 10:07:14;;;;;;;2.60;1.80;;;16.40;99.90;;;-141.84;52.40;20641.09;5071937;28;20757;-75
2023/03/23 10:09:47;;;;;;;2.10;1.73;;;16.40;99.90;;;-141.84;52.34;20675.66;5071874;28;20220;-71
2023/03/23 10:12:34;;;;;;;2.10;1.90;;;16.30;99.90;;;-141.84;53.01;20610.59;5076344;28;20192;-71
2023/03/23 10:15:16;;;;;;;2.53;1.67;;;16.30;99.90;;;-141.84;52.93;20653.28;5092236;28;20540;-72
2023/03/23 10:17:52;;;;;;;3.47;1.60;;;16.30;99.90;;;-141.84;50.76;20675.66;5073482;28;20223;-72
2023/03/23 10:20:38;;;;;;;2.97;1.60;;;16.40;99.90;;;-141.84;51.66;20637.03;5073357;28;20302;-73